»·PEaware :: N2494V KFMN-KGCN

N2494V :: KFMN-KGCN

FLIGHT INFORMATION

Flight Status: Arrived
Operator: Privately registered:
United States
More flights under this callsign
Pilot: Sally S. (18014)
Aircraft: Unknown
(DA62)
More flights by this aircraft type
Origin: KFMN Four Corners Regl
United States
Destination: KGCN Grand Canyon Natl Park
United States
More flights between these airports :: More routes between these airports
Route: TBC
File this flight plan on PilotEdge
Remarks:
Altitude:
(Current/Filed)
10,500ft
Speed:
(Current/Filed)
160kts
Departed: 11-Apr-18 11:01 AM
Arrived: 11-Apr-18 12:34 PM
Distance/Time
Traveled:
194nm/1:33
Distance/Time
To Go:
Arrived

Flight Plot

Page will automatically refresh every two minutes.

Flight plan parsing failed; only flown route is shown


Map Options




Map Legend


Flown Route
Filed Route
Departure Airport
Arrival Airport
Navaid (VOR, NDB)
Fix

Horizontal Profiles

Position Reports

Time Latitude Longitude Heading Altitude Ground
Speed
11-Apr-18 10:46 36.739837 -108.225997 0 5508ft 0kts
11-Apr-18 10:47 36.739837 -108.225997 0 5508ft 0kts
11-Apr-18 10:48 36.739837 -108.225997 0 5508ft 0kts
11-Apr-18 10:49 36.739837 -108.225997 0 5508ft 0kts
11-Apr-18 10:50 36.739837 -108.225997 0 5508ft 0kts
11-Apr-18 10:51 36.739837 -108.225997 0 5508ft 0kts
11-Apr-18 10:52 36.739837 -108.225997 0 5508ft 0kts
11-Apr-18 10:53 36.739837 -108.225997 0 5508ft 0kts
11-Apr-18 10:54 36.739837 -108.225997 0 5508ft 0kts
11-Apr-18 10:55 36.739837 -108.225997 0 5508ft 0kts
11-Apr-18 10:56 36.739837 -108.225997 0 5508ft 0kts
11-Apr-18 10:57 36.740510 -108.231175 269 5508ft 25kts
11-Apr-18 10:58 36.740336 -108.237895 268 5508ft 15kts
11-Apr-18 10:59 36.740315 -108.239254 264 5508ft 0kts
11-Apr-18 11:00 36.741591 -108.229080 98 5536ft 104kts
11-Apr-18 11:01 36.733697 -108.198604 198 6785ft 97kts
11-Apr-18 11:02 36.730243 -108.233986 261 8041ft 115kts
11-Apr-18 11:03 36.729674 -108.273604 261 9315ft 113kts
11-Apr-18 11:04 36.728223 -108.314343 261 10354ft 121kts
11-Apr-18 11:05 36.729926 -108.363041 269 10511ft 154kts
11-Apr-18 11:06 36.731379 -108.417966 266 10508ft 160kts
11-Apr-18 11:07 36.731866 -108.473782 266 10508ft 161kts
11-Apr-18 11:08 36.730541 -108.529729 263 10507ft 161kts
11-Apr-18 11:09 36.727471 -108.585180 261 10507ft 160kts
11-Apr-18 11:10 36.723654 -108.640657 262 10507ft 160kts
11-Apr-18 11:11 36.719841 -108.695711 261 10511ft 161kts
11-Apr-18 11:12 36.715994 -108.751487 261 10508ft 161kts
11-Apr-18 11:13 36.712388 -108.807643 261 10495ft 163kts
11-Apr-18 11:14 36.685830 -108.827780 174 10727ft 159kts
11-Apr-18 11:15 36.666824 -108.867510 253 10494ft 162kts
11-Apr-18 11:16 36.655383 -108.921781 252 10493ft 161kts
11-Apr-18 11:17 36.643717 -108.975839 252 10492ft 162kts
11-Apr-18 11:18 36.632045 -109.029619 252 10496ft 161kts
11-Apr-18 11:19 36.620293 -109.083646 252 10502ft 161kts
11-Apr-18 11:20 36.608525 -109.137625 252 10510ft 161kts
11-Apr-18 11:21 36.596773 -109.191413 253 10520ft 161kts
11-Apr-18 11:22 36.584992 -109.245161 253 10533ft 161kts
11-Apr-18 11:23 36.573191 -109.298905 253 10544ft 161kts
11-Apr-18 11:24 36.561375 -109.352626 254 10553ft 161kts
11-Apr-18 11:25 36.549547 -109.406254 254 10561ft 161kts
11-Apr-18 11:26 36.537692 -109.459903 254 10565ft 161kts
11-Apr-18 11:27 36.525789 -109.513633 254 10564ft 161kts
11-Apr-18 11:28 36.513869 -109.567288 253 10563ft 161kts
11-Apr-18 11:29 36.501921 -109.620949 253 10562ft 161kts
11-Apr-18 11:30 36.490537 -109.671942 252 10566ft 161kts
11-Apr-18 11:31 36.478238 -109.726894 253 10567ft 161kts
11-Apr-18 11:32 36.466194 -109.780586 253 10568ft 161kts
11-Apr-18 11:33 36.454100 -109.834400 253 10569ft 162kts
11-Apr-18 11:34 36.441945 -109.888388 254 10570ft 162kts
11-Apr-18 11:35 36.429767 -109.942353 254 10570ft 162kts
11-Apr-18 11:36 36.417571 -109.996277 254 10569ft 162kts
11-Apr-18 11:37 36.405364 -110.050095 254 10568ft 162kts
11-Apr-18 11:38 36.393167 -110.103758 253 10567ft 161kts
11-Apr-18 11:39 36.380929 -110.157473 253 10566ft 161kts
11-Apr-18 11:40 36.368643 -110.211310 253 10537ft 162kts
11-Apr-18 11:41 36.356239 -110.265554 251 10500ft 164kts
11-Apr-18 11:42 36.343661 -110.320199 250 10464ft 165kts
11-Apr-18 11:43 36.331014 -110.375044 250 10428ft 166kts
11-Apr-18 11:44 36.318208 -110.430026 256 10406ft 164kts
11-Apr-18 11:45 36.305801 -110.484565 250 10410ft 165kts
11-Apr-18 11:46 36.293064 -110.539350 250 10410ft 165kts
11-Apr-18 11:47 36.282411 -110.585238 250 10409ft 165kts
11-Apr-18 11:48 36.269479 -110.639850 255 10406ft 164kts
11-Apr-18 11:49 36.259300 -110.693962 270 10398ft 163kts
11-Apr-18 11:50 36.266116 -110.758774 275 10409ft 163kts
11-Apr-18 11:51 36.270713 -110.814582 275 10409ft 163kts
11-Apr-18 11:52 36.275202 -110.870523 275 10409ft 163kts
11-Apr-18 11:53 36.278863 -110.916877 274 10408ft 162kts
11-Apr-18 11:54 36.283284 -110.972425 275 10408ft 160kts
11-Apr-18 11:55 36.287667 -111.027121 275 10408ft 159kts
11-Apr-18 11:56 36.291957 -111.081445 274 10408ft 157kts
11-Apr-18 11:57 36.296141 -111.134813 274 10407ft 155kts
11-Apr-18 11:58 36.300291 -111.188041 274 10407ft 155kts
11-Apr-18 11:59 36.304410 -111.241240 274 10407ft 155kts
11-Apr-18 12:00 36.308500 -111.294317 274 10406ft 155kts
11-Apr-18 12:01 36.312289 -111.343830 274 10406ft 154kts
11-Apr-18 12:02 36.315641 -111.387851 274 10406ft 154kts
11-Apr-18 12:03 36.319639 -111.440878 274 10406ft 154kts
11-Apr-18 12:04 36.323638 -111.493970 274 10405ft 154kts
11-Apr-18 12:05 36.327615 -111.547142 274 10405ft 154kts
11-Apr-18 12:06 36.331561 -111.600087 274 10404ft 154kts
11-Apr-18 12:07 36.335651 -111.654439 267 10433ft 162kts
11-Apr-18 12:08 36.339679 -111.710177 267 10464ft 163kts
11-Apr-18 12:09 36.343426 -111.765739 267 10491ft 161kts
11-Apr-18 12:10 36.346720 -111.820899 267 10517ft 159kts
11-Apr-18 12:11 36.349662 -111.875649 267 10531ft 158kts
11-Apr-18 12:12 36.352514 -111.930182 267 10535ft 158kts
11-Apr-18 12:13 36.355425 -111.984689 267 10548ft 158kts
11-Apr-18 12:14 36.358531 -112.039182 268 10555ft 158kts
11-Apr-18 12:15 36.361541 -112.093882 268 10562ft 158kts
11-Apr-18 12:16 36.343658 -112.132055 198 10566ft 160kts
11-Apr-18 12:17 36.302362 -112.149155 206 10562ft 158kts
11-Apr-18 12:18 36.261551 -112.169044 207 10561ft 157kts
11-Apr-18 12:19 36.220896 -112.188925 207 10561ft 157kts
11-Apr-18 12:20 36.180095 -112.208870 206 10561ft 157kts
11-Apr-18 12:21 36.139465 -112.228689 207 10560ft 157kts
11-Apr-18 12:22 36.098713 -112.248567 206 10561ft 157kts
11-Apr-18 12:23 36.058077 -112.268269 207 10561ft 157kts
11-Apr-18 12:24 36.017183 -112.287974 206 10526ft 158kts
11-Apr-18 12:25 35.976377 -112.307702 206 10522ft 157kts
11-Apr-18 12:26 35.933364 -112.301265 161 10523ft 177kts
11-Apr-18 12:27 35.893466 -112.271167 125 10524ft 180kts
11-Apr-18 12:28 35.901973 -112.210977 74 10173ft 163kts
11-Apr-18 12:29 35.938133 -112.194471 29 8751ft 141kts
11-Apr-18 12:30 35.959260 -112.151778 40 7519ft 143kts
11-Apr-18 12:31 35.976466 -112.121944 184 7276ft 94kts
11-Apr-18 12:32 35.958591 -112.140269 224 6608ft 49kts
11-Apr-18 12:33 35.956688 -112.140582 47 6608ft 18kts
11-Apr-18 12:34 35.960289 -112.136757 39 6608ft 14kts
11-Apr-18 12:35 35.960764 -112.135831 219 6608ft 0kts
11-Apr-18 12:36 35.960764 -112.135831 219 6608ft 0kts
11-Apr-18 12:37 35.960764 -112.135831 219 6608ft 0kts
11-Apr-18 12:38 35.960764 -112.135831 219 6608ft 0kts

Navigation Log

Ident Type
Flight plan parsing failed, navigation log unavailable